Terminal Aerodrome Forecast
Issued by NWS

Home | Current Version | Previous Version | Text Only | Print | Product List | Glossary On
Versions: 1 2 3 4 5 6 7 8 9 10 11 12
000
FTUS45 KABQ 200500
TAFFMN
TAF
KFMN 200520Z 2006/2106 27005KT P6SM SKC
     FM202200 21010KT P6SM SCT100
     FM210400 12010KT P6SM VCSH BKN080=

USA.gov is the U.S. government's official web portal to all federal, state and local government web resources and services.